| 基因ID | taxid | GeneDate LocusTag | Symbol Synonyms | Symbolfna Fullnamefna | dbXrefs | chromosome maplocation | description | genetype fnastatus | Otherdesignations | Featuretype |
| 111686583 | 7375 | 20220307 | LOC111686583 | 6 | adenosine kinase | protein-coding | ||||
| 111686584 | 7375 | 20220307 | LOC111686584 | 5 | cuticlin-4 | protein-coding | ||||
| 111686585 | 7375 | 20220307 | LOC111686585 | 5 | general transcription factor IIE subunit 2 | protein-coding | ||||
| 111686586 | 7375 | 20220307 | LOC111686586 | 5 | heat shock protein 67B3 | protein-coding | ||||
| 111686587 | 7375 | 20220307 | LOC111686587 | 5 | adrenodoxin-like protein 2, mitochondrial | protein-coding | adrenodoxin-like protein 2, mitochondrial|adrenodoxin | |||
| 111686588 | 7375 | 20220307 | LOC111686588 | 5 | transmembrane protein 50B | protein-coding | ||||
| 111686589 | 7375 | 20220307 | LOC111686589 | 5 | uncharacterized LOC111686589 | protein-coding | uncharacterized protein LOC111686589 | |||
| 111686590 | 7375 | 20220307 | LOC111686590 | 5 | uncharacterized LOC111686590 | protein-coding | uncharacterized protein LOC111686590 | |||
| 111686591 | 7375 | 20220307 | LOC111686591 | 5 | nucleolin | protein-coding | ||||
| 111686592 | 7375 | 20220307 | LOC111686592 | 5 | RNA polymerase-associated protein CTR9 homolog | protein-coding | ||||
| 111686593 | 7375 | 20220307 | LOC111686593 | 6 | protein mahjong | protein-coding | ||||
| 111686594 | 7375 | 20220307 | LOC111686594 | 6 | growth arrest and DNA damage-inducible protein GADD45 alpha | protein-coding | ||||
| 111686595 | 7375 | 20220307 | LOC111686595 | 6 | putative mediator of RNA polymerase II transcription subunit 26 | protein-coding | ||||
| 111686596 | 7375 | 20220307 | LOC111686596 | 6 | uncharacterized LOC111686596 | protein-coding | uncharacterized protein LOC111686596 | |||
| 111686597 | 7375 | 20220307 | LOC111686597 | 6 | ribose-5-phosphate isomerase | protein-coding | ||||
| 111686598 | 7375 | 20220307 | LOC111686598 | 6 | protein TEX261 | protein-coding | ||||
| 111686602 | 7375 | 20220307 | LOC111686602 | 6 | WW domain-containing protein C660.06-like | protein-coding | ||||
| 111686607 | 7375 | 20220307 | LOC111686607 | 6 | odorant receptor 43a | protein-coding | ||||
| 111686612 | 7375 | 20220307 | LOC111686612 | 2 | la protein homolog | protein-coding | ||||
| 111686613 | 7375 | 20220331 | LOC111686613 | 2 | nuclear FMR1 interacting protein 1 | protein-coding | nuclear fragile X mental retardation-interacting protein 1 | |||
| 111686614 | 7375 | 20220307 | LOC111686614 | 2 | uncharacterized LOC111686614 | protein-coding | uncharacterized protein LOC111686614 | |||
| 111686615 | 7375 | 20220307 | LOC111686615 | 2 | mediator of RNA polymerase II transcription subunit 11 | protein-coding | ||||
| 111686617 | 7375 | 20220307 | LOC111686617 | 2 | uncharacterized LOC111686617 | protein-coding | uncharacterized protein LOC111686617 | |||
| 111686618 | 7375 | 20220307 | LOC111686618 | 2 | tetratricopeptide repeat protein 7B | protein-coding | ||||
| 111686619 | 7375 | 20220307 | LOC111686619 | 2 | dolichyl-phosphate beta-glucosyltransferase | protein-coding | ||||
| 111686621 | 7375 | 20220307 | LOC111686621 | 2 | tumor suppressor candidate 3 | protein-coding | ||||
| 111686622 | 7375 | 20220307 | LOC111686622 | 2 | N6-adenosine-methyltransferase non-catalytic subunit | protein-coding | N6-adenosine-methyltransferase non-catalytic subunit|methyltransferase-like protein 14 homolog | |||
| 111686623 | 7375 | 20220307 | LOC111686623 | 2 | epsilon-sarcoglycan | protein-coding | ||||
| 111686624 | 7375 | 20220307 | LOC111686624 | 2 | polyprenol reductase | protein-coding | ||||
| 111686625 | 7375 | 20220307 | LOC111686625 | Un | coiled-coil domain-containing protein 97 | protein-coding | ||||
| 111686627 | 7375 | 20220307 | LOC111686627 | 2 | tyrosine-protein kinase Btk29A-like | protein-coding | ||||
| 111686628 | 7375 | 20220307 | Trnaf-gaa | 2 | transfer RNA phenylalanine (anticodon GAA) | tRNA | ||||
| 111686629 | 7375 | 20220307 | Trnak-uuu | 2 | transfer RNA lysine (anticodon UUU) | tRNA | ||||
| 111686630 | 7375 | 20220307 | LOC111686630 | 2 | histone H2A-like | protein-coding | ||||
| 111686631 | 7375 | 20220307 | LOC111686631 | 2 | DNA polymerase subunit gamma-1, mitochondrial | protein-coding | ||||
| 111686632 | 7375 | 20220307 | LOC111686632 | 2 | brefeldin A-inhibited guanine nucleotide-exchange protein 1 | protein-coding | ||||
| 111686633 | 7375 | 20220307 | LOC111686633 | 2 | histone H2A.1-like | protein-coding | ||||
| 111686634 | 7375 | 20220307 | LOC111686634 | 2 | asparagine--tRNA ligase, cytoplasmic | protein-coding | ||||
| 111686635 | 7375 | 20220307 | LOC111686635 | 2 | general transcription factor 3C polypeptide 5 | protein-coding | ||||
| 111686636 | 7375 | 20220307 | LOC111686636 | 3 | protein lifeguard 1-like | protein-coding | ||||
| 111686637 | 7375 | 20220307 | LOC111686637 | 3 | protein rhomboid | protein-coding | ||||
| 111686638 | 7375 | 20220307 | LOC111686638 | 3 | protein lifeguard 1-like | protein-coding | ||||
| 111686640 | 7375 | 20220307 | LOC111686640 | 5 | titin | protein-coding | ||||
| 111686641 | 7375 | 20220307 | LOC111686641 | 5 | ras-like protein 2 | protein-coding | ||||
| 111686642 | 7375 | 20220307 | LOC111686642 | 5 | uncharacterized LOC111686642 | protein-coding | uncharacterized protein LOC111686642 | |||
| 111686643 | 7375 | 20220307 | LOC111686643 | 5 | adipokinetic hormone | protein-coding | ||||
| 111686644 | 7375 | 20220307 | LOC111686644 | 5 | ensconsin | protein-coding | capping protein inhibiting regulator of actin dynamics|ensconsin|histone-lysine N-methyltransferase, H3 lysine-79 specific | |||
| 111686645 | 7375 | 20220307 | LOC111686645 | 5 | venom serine protease Bi-VSP | protein-coding | ||||
| 111686646 | 7375 | 20220307 | LOC111686646 | 3 | basement membrane proteoglycan | protein-coding | basement membrane proteoglycan|basement membrane-specific heparan sulfate proteoglycan core protein | |||
| 111686647 | 7375 | 20220307 | Trnat-ugu | 4 | transfer RNA threonine (anticodon UGU) | tRNA |
| 维奥蛋白资源库 - 中文蛋白资源 CopyRight © 2010-2026 |